Time;durP1;ratioP1;P1;durP2;ratioP2;P2;SDS_P1;SDS_P2;PMS_P1;PMS_P2;Temp;Humidity;BMP_temperature;BMP_pressure;BME280_temperature;BME280_humidity;BME280_pressure;Samples;Min_cycle;Max_cycle;Signal;HPM_P1;HPM_P2
2021/03/01 00:01:18;;;;;;;26.02;16.95;;;4.10;91.80;;;;;;5015284;28;20030;-67
2021/03/01 00:03:44;;;;;;;30.10;16.92;;;4.10;91.90;;;;;;5007431;28;20053;-65
2021/03/01 00:06:10;;;;;;;29.35;17.25;;;4.20;91.50;;;;;;5014413;28;20487;-66
2021/03/01 00:08:36;;;;;;;29.35;15.93;;;4.30;91.40;;;;;;5014366;28;20061;-67
2021/03/01 00:11:02;;;;;;;26.45;16.58;;;4.40;91.30;;;;;;5021323;28;20073;-67
2021/03/01 00:13:28;;;;;;;29.77;18.80;;;4.30;91.30;;;;;;5011787;28;20547;-66
2021/03/01 00:16:12;;;;;;;26.60;15.60;;;4.40;91.50;;;;;;5008256;28;20052;-67
2021/03/01 00:18:38;;;;;;;27.80;16.67;;;4.40;91.70;;;;;;5019733;28;20413;-66
2021/03/01 00:21:04;;;;;;;25.58;16.15;;;4.40;91.10;;;;;;5001615;28;20057;-66
2021/03/01 00:23:29;;;;;;;24.55;15.77;;;4.30;91.80;;;;;;5002000;28;20046;-66
2021/03/01 00:25:55;;;;;;;23.65;15.80;;;4.40;91.50;;;;;;5008805;28;20069;-65
2021/03/01 00:28:20;;;;;;;22.17;15.35;;;4.40;91.40;;;;;;5012080;28;20101;-66
2021/03/01 00:30:46;;;;;;;24.45;15.18;;;4.50;91.20;;;;;;5013100;28;20038;-66
2021/03/01 00:33:11;;;;;;;26.60;16.60;;;4.60;91.00;;;;;;5014089;28;20053;-66
2021/03/01 00:35:37;;;;;;;27.38;16.20;;;4.70;90.90;;;;;;5012512;28;20485;-65
2021/03/01 00:38:03;;;;;;;26.05;16.65;;;4.70;90.90;;;;;;5012619;28;20041;-66
2021/03/01 00:40:29;;;;;;;25.52;15.98;;;4.80;90.70;;;;;;5014438;28;20187;-67
2021/03/01 00:42:55;;;;;;;30.48;17.00;;;4.60;90.50;;;;;;5031822;28;20041;-66
2021/03/01 00:45:21;;;;;;;28.92;17.55;;;4.60;91.00;;;;;;5021558;28;20034;-66
2021/03/01 00:47:46;;;;;;;23.85;15.75;;;4.60;90.60;;;;;;5024287;28;20081;-67
2021/03/01 00:50:13;;;;;;;23.65;14.10;;;4.60;90.40;;;;;;5021171;28;20042;-66
2021/03/01 00:52:39;;;;;;;26.45;16.80;;;4.30;90.80;;;;;;5012051;28;20498;-66
2021/03/01 00:55:06;;;;;;;23.02;15.27;;;4.20;91.20;;;;;;5003972;28;20117;-66
2021/03/01 00:57:31;;;;;;;24.80;14.07;;;4.10;91.30;;;;;;5035074;28;20030;-65
2021/03/01 00:59:57;;;;;;;26.05;16.58;;;4.10;91.10;;;;;;5009322;28;20379;-66
2021/03/01 01:02:22;;;;;;;29.20;17.00;;;4.00;91.20;;;;;;5004766;28;20052;-67
2021/03/01 01:04:48;;;;;;;27.55;17.42;;;4.10;91.40;;;;;;5001543;28;20052;-67
2021/03/01 01:07:14;;;;;;;25.00;15.80;;;3.90;91.70;;;;;;5007087;28;20056;-67
2021/03/01 01:09:39;;;;;;;26.08;16.48;;;3.90;91.60;;;;;;5013154;28;20038;-67
2021/03/01 01:12:08;;;;;;;27.25;16.83;;;3.90;91.70;;;;;;5012677;28;20026;-68
2021/03/01 01:14:37;;;;;;;27.23;16.05;;;4.00;91.50;;;;;;5012915;28;20034;-67
2021/03/01 01:17:04;;;;;;;27.48;16.88;;;4.00;91.80;;;;;;5011936;28;20385;-67
2021/03/01 01:19:29;;;;;;;26.45;15.93;;;4.10;91.40;;;;;;5032542;28;20095;-66
2021/03/01 01:21:55;;;;;;;25.60;16.58;;;4.20;90.90;;;;;;5014486;28;20038;-66
2021/03/01 01:24:21;;;;;;;27.58;15.77;;;4.10;91.30;;;;;;5013209;28;20038;-67
2021/03/01 01:26:46;;;;;;;24.55;15.10;;;4.10;91.50;;;;;;5014921;28;20382;-66
2021/03/01 01:29:12;;;;;;;26.90;15.38;;;4.20;91.10;;;;;;5015639;28;20045;-67
2021/03/01 01:31:37;;;;;;;26.25;15.77;;;4.20;91.20;;;;;;5010520;28;20038;-65
2021/03/01 01:34:03;;;;;;;26.70;16.45;;;4.40;93.50;;;;;;5005260;28;20113;-66
2021/03/01 01:36:28;;;;;;;22.85;14.85;;;4.50;91.20;;;;;;5004773;28;20485;-66
2021/03/01 01:38:54;;;;;;;26.42;15.15;;;4.40;90.70;;;;;;4984204;28;20093;-66
2021/03/01 01:41:20;;;;;;;23.17;14.98;;;4.30;90.90;;;;;;4994925;28;20038;-66
2021/03/01 01:43:47;;;;;;;24.20;15.50;;;4.10;91.20;;;;;;4992959;28;20113;-67
2021/03/01 01:46:12;;;;;;;21.95;15.32;;;4.20;91.00;;;;;;5009371;28;20448;-67
2021/03/01 01:48:38;;;;;;;21.75;13.85;;;4.20;91.10;;;;;;5000753;28;20096;-65
2021/03/01 01:51:04;;;;;;;22.88;14.45;;;4.30;90.70;;;;;;5001829;28;20100;-67
2021/03/01 01:53:30;;;;;;;21.42;14.05;;;4.30;90.60;;;;;;5002946;28;20037;-67
2021/03/01 01:55:59;;;;;;;24.35;15.10;;;4.30;90.70;;;;;;5005157;28;20397;-66
2021/03/01 01:58:25;;;;;;;22.58;14.25;;;4.20;90.70;;;;;;5002280;28;20038;-67
2021/03/01 02:00:51;;;;;;;22.05;14.60;;;4.30;90.90;;;;;;5004683;28;20041;-67
2021/03/01 02:03:35;;;;;;;23.85;15.05;;;4.20;90.50;;;;;;5003758;28;20073;-65
2021/03/01 02:06:38;;;;;;;23.00;14.25;;;4.10;91.00;;;;;;5005782;28;20042;-66
2021/03/01 02:09:21;;;;;;;22.92;14.98;;;4.10;90.80;;;;;;5004990;28;20030;-67
2021/03/01 02:12:06;;;;;;;22.85;14.98;;;4.20;91.00;;;;;;5003392;28;20034;-66
2021/03/01 02:14:31;;;;;;;24.83;14.35;;;4.20;91.20;;;;;;5007724;28;20021;-68
2021/03/01 02:16:57;;;;;;;24.05;15.30;;;4.20;91.10;;;;;;5003626;28;20041;-66
2021/03/01 02:19:24;;;;;;;25.42;14.95;;;4.20;90.70;;;;;;5009938;28;20051;-66
2021/03/01 02:21:50;;;;;;;21.88;14.50;;;4.20;91.10;;;;;;5003318;28;20121;-66
2021/03/01 02:24:20;;;;;;;23.90;14.77;;;4.30;91.00;;;;;;5004794;28;20679;-66
2021/03/01 02:26:48;;;;;;;22.73;14.63;;;4.30;90.40;;;;;;5003899;28;20161;-67
2021/03/01 02:29:16;;;;;;;22.33;15.48;;;4.00;91.30;;;;;;5004874;28;20022;-67
2021/03/01 02:31:45;;;;;;;24.65;15.50;;;4.00;91.20;;;;;;5001128;28;20512;-66
2021/03/01 02:34:15;;;;;;;21.92;13.77;;;4.10;91.40;;;;;;5018460;28;20107;-66
2021/03/01 02:36:54;;;;;;;24.98;14.90;;;4.20;90.90;;;;;;5002704;28;20033;-66
2021/03/01 02:39:23;;;;;;;22.92;15.25;;;4.20;91.00;;;;;;4999216;28;20045;-66
2021/03/01 02:41:50;;;;;;;26.15;15.40;;;4.20;91.00;;;;;;5006205;28;20030;-66
2021/03/01 02:44:17;;;;;;;19.75;13.18;;;4.30;91.10;;;;;;5004008;28;20084;-67
2021/03/01 02:46:45;;;;;;;21.75;13.82;;;4.30;91.20;;;;;;5006973;28;20030;-67
2021/03/01 02:49:12;;;;;;;23.77;14.68;;;4.30;90.90;;;;;;5001256;28;20544;-67
2021/03/01 02:51:40;;;;;;;21.92;13.90;;;4.30;91.00;;;;;;5002849;28;20164;-66
2021/03/01 02:54:06;;;;;;;23.75;14.18;;;4.30;91.00;;;;;;5004800;28;20034;-67
2021/03/01 02:56:33;;;;;;;21.10;13.73;;;4.30;90.90;;;;;;5035225;28;20715;-66
2021/03/01 02:59:00;;;;;;;19.63;13.23;;;4.30;90.70;;;;;;5003953;28;20045;-67
2021/03/01 03:01:27;;;;;;;21.42;13.77;;;4.40;90.40;;;;;;5000072;28;20034;-67
2021/03/01 03:03:54;;;;;;;20.65;13.68;;;4.10;90.60;;;;;;5016660;28;20042;-66
2021/03/01 03:06:22;;;;;;;22.83;14.40;;;4.00;91.20;;;;;;5038187;28;20049;-68
2021/03/01 03:08:51;;;;;;;20.70;13.32;;;4.00;91.30;;;;;;5010907;28;20042;-67
2021/03/01 03:11:19;;;;;;;20.35;12.20;;;4.20;90.90;;;;;;5013445;28;20485;-66
2021/03/01 03:13:49;;;;;;;19.23;11.85;;;4.30;90.70;;;;;;5000454;28;20042;-67
2021/03/01 03:16:20;;;;;;;19.83;12.55;;;4.20;90.70;;;;;;5002798;28;20034;-66
2021/03/01 03:18:47;;;;;;;18.35;13.10;;;4.10;90.80;;;;;;5005208;28;20453;-66
2021/03/01 03:21:13;;;;;;;20.55;13.15;;;4.10;90.70;;;;;;4994924;28;20130;-66
2021/03/01 03:23:39;;;;;;;19.85;12.73;;;3.90;91.30;;;;;;5002375;28;20038;-66
2021/03/01 03:26:04;;;;;;;16.75;11.38;;;3.90;91.00;;;;;;4996740;28;20027;-66
2021/03/01 03:28:30;;;;;;;19.95;12.65;;;4.00;90.90;;;;;;5001992;28;20057;-66
2021/03/01 03:30:56;;;;;;;21.52;13.27;;;3.90;91.40;;;;;;5013913;28;20494;-67
2021/03/01 03:33:22;;;;;;;18.77;11.07;;;4.00;91.00;;;;;;5002209;28;20117;-67
2021/03/01 03:35:47;;;;;;;19.23;12.38;;;4.00;90.80;;;;;;5014290;28;20073;-66
2021/03/01 03:38:22;;;;;;;18.02;11.07;;;3.80;91.30;;;;;;5014274;28;20065;-67
2021/03/01 03:40:50;;;;;;;18.02;10.93;;;3.80;91.20;;;;;;5007710;28;20030;-65
2021/03/01 03:43:18;;;;;;;19.52;11.57;;;3.80;91.00;;;;;;5012739;28;20030;-65
2021/03/01 03:45:45;;;;;;;18.75;12.40;;;3.70;91.40;;;;;;5015247;28;20022;-66
2021/03/01 03:48:12;;;;;;;19.77;12.20;;;3.70;91.40;;;;;;4996382;28;20060;-65
2021/03/01 03:50:39;;;;;;;19.30;11.93;;;3.90;91.00;;;;;;4994567;28;20049;-65
2021/03/01 03:53:14;;;;;;;19.75;12.38;;;4.00;90.80;;;;;;5011112;28;20041;-65
2021/03/01 03:55:48;;;;;;;20.83;12.95;;;4.00;90.90;;;;;;5029998;28;20425;-67
2021/03/01 03:58:18;;;;;;;25.05;14.18;;;3.70;91.30;;;;;;4997829;28;20117;-66
2021/03/01 04:00:47;;;;;;;26.02;13.75;;;3.60;91.60;;;;;;4994298;28;20031;-66
2021/03/01 04:03:14;;;;;;;20.25;14.00;;;3.50;92.20;;;;;;5011426;28;20038;-66
2021/03/01 04:05:42;;;;;;;21.48;12.95;;;3.60;91.90;;;;;;5013983;28;20425;-66
2021/03/01 04:08:13;;;;;;;23.65;13.52;;;3.70;92.00;;;;;;5013264;28;20034;-66
2021/03/01 04:10:43;;;;;;;21.70;14.77;;;3.80;92.00;;;;;;5014175;28;20072;-66
2021/03/01 04:13:12;;;;;;;24.23;13.93;;;3.90;91.70;;;;;;4999026;28;20062;-65
2021/03/01 04:15:41;;;;;;;21.98;14.13;;;4.00;91.50;;;;;;4994948;28;20062;-66
2021/03/01 04:18:09;;;;;;;23.08;14.27;;;4.10;91.30;;;;;;5008664;28;20042;-66
2021/03/01 04:20:36;;;;;;;21.80;12.65;;;4.10;91.00;;;;;;5013386;28;20037;-66
2021/03/01 04:23:02;;;;;;;19.70;12.38;;;4.00;91.10;;;;;;5000848;28;20042;-66
2021/03/01 04:25:29;;;;;;;21.23;13.05;;;4.00;91.10;;;;;;5007465;28;20118;-66
2021/03/01 04:27:56;;;;;;;21.05;12.63;;;4.00;91.20;;;;;;5003485;28;20398;-66
2021/03/01 04:30:22;;;;;;;22.95;13.65;;;4.10;91.10;;;;;;4994637;28;20088;-66
2021/03/01 04:32:49;;;;;;;20.60;12.57;;;4.10;91.10;;;;;;5004524;28;20120;-66
2021/03/01 04:35:18;;;;;;;21.08;12.98;;;4.10;90.90;;;;;;5014665;28;20113;-66
2021/03/01 04:37:43;;;;;;;21.65;12.98;;;4.20;90.90;;;;;;5014115;28;20066;-66
2021/03/01 04:40:10;;;;;;;21.15;12.75;;;4.10;90.60;;;;;;5013370;28;20057;-66
2021/03/01 04:42:37;;;;;;;22.20;12.70;;;4.00;91.00;;;;;;5011437;28;20037;-66
2021/03/01 04:45:04;;;;;;;20.52;13.48;;;4.00;91.00;;;;;;5014030;28;20125;-66
2021/03/01 04:47:30;;;;;;;19.85;12.38;;;4.00;90.70;;;;;;5013774;28;20038;-66
2021/03/01 04:49:58;;;;;;;21.45;12.85;;;4.00;90.70;;;;;;5014469;28;20044;-65
2021/03/01 04:52:25;;;;;;;21.80;13.10;;;4.00;90.60;;;;;;5013176;28;20128;-66
2021/03/01 04:54:52;;;;;;;19.95;12.40;;;4.00;90.70;;;;;;5012687;28;20111;-66
2021/03/01 04:57:19;;;;;;;22.45;13.85;;;4.00;90.70;;;;;;5013114;28;20034;-66
2021/03/01 04:59:48;;;;;;;23.05;13.80;;;3.70;91.40;;;;;;5014514;28;20025;-66
2021/03/01 05:02:15;;;;;;;22.38;12.88;;;3.80;91.10;;;;;;5011764;28;20486;-67
2021/03/01 05:04:41;;;;;;;18.80;12.73;;;3.90;91.20;;;;;;5011993;28;20050;-66
2021/03/01 05:07:08;;;;;;;19.85;12.73;;;3.90;90.90;;;;;;5012208;28;20429;-66
2021/03/01 05:09:38;;;;;;;20.27;13.38;;;3.90;90.90;;;;;;4994194;28;20037;-66
2021/03/01 05:12:05;;;;;;;21.90;12.90;;;3.90;90.80;;;;;;4994009;28;20035;-66
2021/03/01 05:14:31;;;;;;;21.50;12.98;;;3.90;91.00;;;;;;4992705;28;20078;-66
2021/03/01 05:16:56;;;;;;;21.60;13.00;;;3.90;90.90;;;;;;4997932;28;20650;-67
2021/03/01 05:19:22;;;;;;;21.33;13.73;;;3.90;90.80;;;;;;5011294;28;20046;-65
2021/03/01 05:21:48;;;;;;;20.63;12.98;;;3.90;91.10;;;;;;5013543;28;20042;-66
2021/03/01 05:24:13;;;;;;;21.70;14.10;;;4.00;91.00;;;;;;5000711;28;20485;-65
2021/03/01 05:26:39;;;;;;;20.27;13.13;;;4.00;91.10;;;;;;5013313;28;20111;-65
2021/03/01 05:29:04;;;;;;;17.67;11.27;;;4.10;91.10;;;;;;4997953;28;20125;-66
2021/03/01 05:31:31;;;;;;;20.88;12.45;;;4.10;91.10;;;;;;5001532;28;20038;-66
2021/03/01 05:33:56;;;;;;;20.42;12.30;;;4.00;90.90;;;;;;5006133;28;20042;-66
2021/03/01 05:36:22;;;;;;;20.27;13.15;;;4.10;91.00;;;;;;4999909;28;20128;-66
2021/03/01 05:38:48;;;;;;;21.20;13.13;;;4.00;90.60;;;;;;5003730;28;20367;-67
2021/03/01 05:41:19;;;;;;;21.48;13.75;;;4.00;91.00;;;;;;5012269;28;20133;-67
2021/03/01 05:43:48;;;;;;;19.20;13.05;;;4.10;90.70;;;;;;4985986;28;20035;-67
2021/03/01 05:46:14;;;;;;;19.90;13.07;;;4.10;90.50;;;;;;4993024;28;20038;-66
2021/03/01 05:48:40;;;;;;;19.88;12.93;;;4.00;90.80;;;;;;5001560;28;20030;-66
2021/03/01 05:51:06;;;;;;;20.83;12.55;;;4.00;90.60;;;;;;5012389;28;20033;-67
2021/03/01 05:53:37;;;;;;;21.23;13.00;;;4.10;90.60;;;;;;5005270;28;20116;-65
2021/03/01 05:56:03;;;;;;;18.10;12.25;;;4.00;90.50;;;;;;4992311;28;20042;-66
2021/03/01 05:58:30;;;;;;;19.55;12.77;;;4.00;90.70;;;;;;4997517;28;20080;-66
2021/03/01 06:01:01;;;;;;;20.00;12.57;;;4.00;90.80;;;;;;5013156;28;20033;-66
2021/03/01 06:03:34;;;;;;;21.00;13.35;;;4.00;90.60;;;;;;5006589;28;20026;-66
2021/03/01 06:06:01;;;;;;;23.05;13.15;;;3.90;90.80;;;;;;4992789;28;20059;-66
2021/03/01 06:08:27;;;;;;;20.02;13.20;;;3.90;90.90;;;;;;4996001;28;20061;-66
2021/03/01 06:11:00;;;;;;;22.60;13.85;;;3.90;91.00;;;;;;5012792;28;20029;-66
2021/03/01 06:13:26;;;;;;;21.65;14.32;;;3.80;90.70;;;;;;5010798;28;20042;-65
2021/03/01 06:15:54;;;;;;;22.67;14.23;;;3.70;91.20;;;;;;5012486;28;20641;-66
2021/03/01 06:18:19;;;;;;;23.05;14.13;;;3.80;91.50;;;;;;5009861;28;20044;-66
2021/03/01 06:20:45;;;;;;;22.98;13.70;;;3.80;91.10;;;;;;4993492;28;20031;-66
2021/03/01 06:23:11;;;;;;;22.67;14.38;;;3.90;90.90;;;;;;5007118;28;20046;-67
2021/03/01 06:25:36;;;;;;;22.63;14.45;;;3.80;91.20;;;;;;4997505;28;20030;-66
2021/03/01 06:28:06;;;;;;;27.35;14.57;;;3.90;91.10;;;;;;5012453;28;20038;-67
2021/03/01 06:30:37;;;;;;;19.77;12.95;;;4.00;90.80;;;;;;5026868;28;20053;-66
2021/03/01 06:33:05;;;;;;;25.60;14.98;;;4.00;90.80;;;;;;5009944;28;20485;-66
2021/03/01 06:35:36;;;;;;;23.17;15.30;;;4.00;90.60;;;;;;5004830;28;20050;-66
2021/03/01 06:38:18;;;;;;;26.08;14.48;;;3.70;91.40;;;;;;4992916;28;20046;-67
2021/03/01 06:40:45;;;;;;;22.73;14.25;;;3.60;91.70;;;;;;5010299;28;20042;-66
2021/03/01 06:43:13;;;;;;;23.17;14.35;;;3.50;91.50;;;;;;5026318;28;20070;-66
2021/03/01 06:45:39;;;;;;;24.77;13.73;;;3.60;91.50;;;;;;5009381;28;20041;-67
2021/03/01 06:48:05;;;;;;;25.15;14.32;;;3.30;92.00;;;;;;5009213;28;20038;-67
2021/03/01 06:50:36;;;;;;;21.17;13.57;;;3.30;92.10;;;;;;5011750;28;20045;-66
2021/03/01 06:53:15;;;;;;;23.08;13.85;;;3.40;91.70;;;;;;5009957;28;20410;-66
2021/03/01 06:56:05;;;;;;;22.23;13.32;;;3.50;91.70;;;;;;5010515;28;20036;-66
2021/03/01 06:58:47;;;;;;;25.63;15.30;;;3.60;91.60;;;;;;5006069;28;20049;-66
2021/03/01 07:01:24;;;;;;;25.15;14.05;;;3.60;91.30;;;;;;4999464;28;20046;-67
2021/03/01 07:03:51;;;;;;;26.55;15.50;;;3.60;91.60;;;;;;5010271;28;20048;-67
2021/03/01 07:06:18;;;;;;;23.15;13.80;;;3.60;91.40;;;;;;5001513;28;20041;-66
2021/03/01 07:08:52;;;;;;;23.27;12.98;;;3.60;91.50;;;;;;5010568;28;20056;-66
2021/03/01 07:11:31;;;;;;;25.75;15.13;;;3.60;91.40;;;;;;5012133;28;20513;-66
2021/03/01 07:14:18;;;;;;;25.80;14.73;;;3.60;91.80;;;;;;5006358;28;20034;-66
2021/03/01 07:16:46;;;;;;;26.60;15.93;;;3.40;91.90;;;;;;5010609;28;20038;-65
2021/03/01 07:19:38;;;;;;;25.77;16.08;;;3.40;91.90;;;;;;5010409;28;20026;-66
2021/03/01 07:22:09;;;;;;;27.50;14.20;;;3.20;92.40;;;;;;4987828;28;20452;-67
2021/03/01 07:24:35;;;;;;;24.33;13.88;;;3.40;92.10;;;;;;4993279;28;20023;-67
2021/03/01 07:27:04;;;;;;;23.55;14.90;;;3.30;92.30;;;;;;5005661;28;20389;-66
2021/03/01 07:29:37;;;;;;;28.27;14.90;;;3.30;92.10;;;;;;5006583;28;20026;-65
2021/03/01 07:32:05;;;;;;;25.20;15.07;;;3.40;92.50;;;;;;4992479;28;20022;-66
2021/03/01 07:34:33;;;;;;;25.60;14.13;;;3.30;92.30;;;;;;4992844;28;20061;-67
2021/03/01 07:37:00;;;;;;;25.58;14.07;;;3.40;92.60;;;;;;4992155;28;20041;-67
2021/03/01 07:39:27;;;;;;;25.55;13.93;;;3.50;91.70;;;;;;4994929;28;20053;-67
2021/03/01 07:41:54;;;;;;;21.58;12.90;;;3.30;92.10;;;;;;5010640;28;20131;-67
2021/03/01 07:44:28;;;;;;;53.40;29.05;;;3.50;91.60;;;;;;5010128;28;20029;-67
2021/03/01 07:46:54;;;;;;;40.72;23.85;;;3.60;91.70;;;;;;4994052;28;20536;-67
2021/03/01 07:49:48;;;;;;;31.17;16.38;;;3.60;91.80;;;;;;5013556;28;20057;-66
2021/03/01 07:52:19;;;;;;;25.42;14.73;;;3.70;91.60;;;;;;5006861;28;20030;-66
2021/03/01 07:54:53;;;;;;;24.80;14.50;;;3.80;91.50;;;;;;5022675;28;20072;-65
2021/03/01 07:57:26;;;;;;;30.92;17.38;;;4.00;91.30;;;;;;5001123;28;20093;-65
2021/03/01 07:59:52;;;;;;;44.80;24.58;;;4.10;90.90;;;;;;4996060;28;20529;-65
2021/03/01 08:02:24;;;;;;;61.05;33.55;;;4.10;90.40;;;;;;4997589;28;20058;-66
2021/03/01 08:04:50;;;;;;;49.33;27.67;;;4.10;90.60;;;;;;4998830;28;20034;-67
2021/03/01 08:07:17;;;;;;;45.38;24.67;;;4.00;90.70;;;;;;5013936;28;20513;-67
2021/03/01 08:09:53;;;;;;;44.35;25.02;;;4.00;90.60;;;;;;5010871;28;20076;-67
2021/03/01 08:12:28;;;;;;;48.53;28.75;;;4.10;90.30;;;;;;4994762;28;20129;-66
2021/03/01 08:14:53;;;;;;;52.15;27.73;;;4.00;90.50;;;;;;5009065;28;20435;-67
2021/03/01 08:17:29;;;;;;;46.40;25.63;;;4.00;90.60;;;;;;5007248;28;20038;-67
2021/03/01 08:20:15;;;;;;;49.00;26.55;;;4.00;90.50;;;;;;4996721;28;20486;-67
2021/03/01 08:23:21;;;;;;;51.67;27.33;;;4.10;90.10;;;;;;4988010;28;20050;-66
2021/03/01 08:25:54;;;;;;;55.70;28.02;;;4.20;90.10;;;;;;5008043;28;20440;-67
2021/03/01 08:28:23;;;;;;;58.15;31.15;;;3.90;91.00;;;;;;4999722;28;20023;-66
2021/03/01 08:30:54;;;;;;;53.08;29.52;;;3.90;91.10;;;;;;4994252;28;20026;-67
2021/03/01 08:33:26;;;;;;;64.00;33.45;;;4.00;90.70;;;;;;5004142;28;20028;-66
2021/03/01 08:36:15;;;;;;;53.33;28.15;;;4.10;91.00;;;;;;5014070;28;20152;-68
2021/03/01 08:38:41;;;;;;;50.50;28.08;;;4.10;91.00;;;;;;5013372;28;20041;-67
2021/03/01 08:41:07;;;;;;;57.47;27.67;;;4.10;91.10;;;;;;5002972;28;20057;-66
2021/03/01 08:43:53;;;;;;;54.92;27.70;;;4.20;91.20;;;;;;4977489;28;20141;-67
2021/03/01 08:46:21;;;;;;;53.97;28.55;;;4.30;90.30;;;;;;5007657;28;20112;-66
2021/03/01 08:48:49;;;;;;;59.45;29.58;;;4.10;90.40;;;;;;5013183;28;20548;-65
2021/03/01 08:51:17;;;;;;;53.78;28.40;;;3.90;90.90;;;;;;5012509;28;20056;-67
2021/03/01 08:53:45;;;;;;;57.80;29.52;;;3.90;91.10;;;;;;5014456;28;20037;-66
2021/03/01 08:56:21;;;;;;;61.67;34.33;;;3.90;91.50;;;;;;5014235;28;20029;-68
2021/03/01 08:58:48;;;;;;;51.85;29.70;;;3.80;91.60;;;;;;5013900;28;20046;-67
2021/03/01 09:01:14;;;;;;;52.75;28.27;;;3.90;91.20;;;;;;5011371;28;20030;-66
2021/03/01 09:03:41;;;;;;;52.13;27.83;;;3.90;91.20;;;;;;5012294;28;20041;-66
2021/03/01 09:06:17;;;;;;;54.53;28.42;;;3.90;91.10;;;;;;5004387;28;20038;-67
2021/03/01 09:08:54;;;;;;;52.35;27.55;;;3.60;91.40;;;;;;4993686;28;20029;-66
2021/03/01 09:11:29;;;;;;;52.92;27.67;;;3.70;91.40;;;;;;5003992;28;20074;-67
2021/03/01 09:13:58;;;;;;;51.22;28.80;;;3.80;91.30;;;;;;5007695;28;20034;-67
2021/03/01 09:16:26;;;;;;;50.25;26.65;;;3.70;91.40;;;;;;5011357;28;20389;-68
2021/03/01 09:18:58;;;;;;;52.65;29.48;;;3.50;91.70;;;;;;5001381;28;20449;-67
2021/03/01 09:21:23;;;;;;;52.60;27.42;;;3.60;91.90;;;;;;5004910;28;20053;-68
2021/03/01 09:23:54;;;;;;;46.65;25.08;;;3.70;91.80;;;;;;4991469;28;20041;-67
2021/03/01 09:26:32;;;;;;;51.05;25.25;;;3.80;91.50;;;;;;5003156;28;20049;-68
2021/03/01 09:29:06;;;;;;;53.53;28.08;;;3.90;91.30;;;;;;5013124;28;20476;-67
2021/03/01 09:31:45;;;;;;;51.15;26.13;;;3.90;91.20;;;;;;5009022;28;20033;-67
2021/03/01 09:34:13;;;;;;;52.83;27.58;;;3.90;91.00;;;;;;5006241;28;20077;-68
2021/03/01 09:36:40;;;;;;;53.10;27.45;;;4.00;91.10;;;;;;4991299;28;20478;-69
2021/03/01 09:39:15;;;;;;;57.47;26.88;;;4.10;90.90;;;;;;5005368;28;20038;-68
2021/03/01 09:41:40;;;;;;;60.17;29.05;;;4.10;90.60;;;;;;5034207;28;20045;-68
2021/03/01 09:44:06;;;;;;;57.03;30.23;;;4.10;90.70;;;;;;5002827;28;20042;-68
2021/03/01 09:46:33;;;;;;;66.65;32.20;;;4.10;90.70;;;;;;5021975;28;20038;-69
2021/03/01 09:49:03;;;;;;;63.60;33.08;;;3.80;91.20;;;;;;5013508;28;20065;-68
2021/03/01 09:51:33;;;;;;;67.32;32.97;;;3.60;92.00;;;;;;5000689;28;20433;-68
2021/03/01 09:54:03;;;;;;;66.97;32.72;;;3.90;91.30;;;;;;5018056;28;20096;-69
2021/03/01 09:56:40;;;;;;;64.95;35.25;;;4.00;91.40;;;;;;5007833;28;20056;-67
2021/03/01 09:59:06;;;;;;;63.40;32.75;;;4.10;90.80;;;;;;5007313;28;20025;-68
2021/03/01 10:01:32;;;;;;;68.38;33.50;;;4.10;90.60;;;;;;5002295;28;20410;-69
2021/03/01 10:04:00;;;;;;;69.50;33.40;;;4.00;90.90;;;;;;5002415;28;20043;-68
2021/03/01 10:06:35;;;;;;;64.72;34.05;;;4.00;91.00;;;;;;5028849;28;20697;-67
2021/03/01 10:09:09;;;;;;;63.08;32.13;;;4.00;90.90;;;;;;5009395;28;20520;-68
2021/03/01 10:11:35;;;;;;;60.25;31.42;;;3.90;90.90;;;;;;5020526;28;20033;-68
2021/03/01 10:14:06;;;;;;;61.33;31.10;;;3.90;91.00;;;;;;5026047;28;20386;-67
2021/03/01 10:16:34;;;;;;;57.33;32.60;;;4.00;91.00;;;;;;5027011;28;20048;-68
2021/03/01 10:19:37;;;;;;;70.85;34.53;;;4.10;90.90;;;;;;5020698;28;20042;-68
2021/03/01 10:22:06;;;;;;;60.47;30.90;;;4.20;90.50;;;;;;5017639;28;20129;-67
2021/03/01 10:24:48;;;;;;;61.60;33.38;;;4.10;90.20;;;;;;4995473;28;20040;-68
2021/03/01 10:27:15;;;;;;;66.03;33.58;;;4.20;90.50;;;;;;4996290;28;20077;-70
2021/03/01 10:29:43;;;;;;;67.47;33.67;;;4.20;90.40;;;;;;4993463;28;20033;-67
2021/03/01 10:32:25;;;;;;;57.70;31.75;;;4.20;90.70;;;;;;5003299;28;20065;-67
2021/03/01 10:34:52;;;;;;;59.60;30.45;;;4.30;90.30;;;;;;5012802;28;20440;-68
2021/03/01 10:37:26;;;;;;;59.97;31.50;;;4.30;90.20;;;;;;5000419;28;20039;-67
2021/03/01 10:39:53;;;;;;;61.60;32.67;;;4.40;90.20;;;;;;4996726;28;20034;-68
2021/03/01 10:42:21;;;;;;;57.08;30.83;;;4.50;90.00;;;;;;4992990;28;20189;-68
2021/03/01 10:44:53;;;;;;;54.08;31.50;;;4.50;90.00;;;;;;5002668;28;20398;-69
2021/03/01 10:47:24;;;;;;;56.72;31.88;;;4.60;89.30;;;;;;5012968;28;20690;-67
2021/03/01 10:49:59;;;;;;;61.80;32.25;;;4.60;89.30;;;;;;5005912;28;20042;-67
2021/03/01 10:52:26;;;;;;;68.13;34.90;;;4.60;89.50;;;;;;5005715;28;20110;-68
2021/03/01 10:54:55;;;;;;;61.50;33.90;;;4.50;89.70;;;;;;5009742;28;20036;-68
2021/03/01 10:57:25;;;;;;;63.65;34.03;;;4.50;90.20;;;;;;5015831;28;20045;-69
2021/03/01 10:59:54;;;;;;;58.13;33.65;;;4.50;89.80;;;;;;5013742;28;20409;-68
2021/03/01 11:02:20;;;;;;;61.65;35.45;;;4.30;89.90;;;;;;5015261;28;20033;-69
2021/03/01 11:04:47;;;;;;;63.78;34.17;;;4.40;90.00;;;;;;5011314;28;20037;-68
2021/03/01 11:07:13;;;;;;;63.75;35.35;;;4.30;90.00;;;;;;5011505;28;20116;-68
2021/03/01 11:09:39;;;;;;;63.97;34.90;;;4.30;90.50;;;;;;5011942;28;20030;-67
2021/03/01 11:12:05;;;;;;;64.72;35.25;;;4.40;90.30;;;;;;5012598;28;20108;-66
2021/03/01 11:14:31;;;;;;;66.13;36.45;;;4.30;90.40;;;;;;5006471;28;20026;-66
2021/03/01 11:16:58;;;;;;;61.58;35.13;;;4.40;90.30;;;;;;5011053;28;20056;-67
2021/03/01 11:19:24;;;;;;;66.60;34.67;;;4.30;90.50;;;;;;5010613;28;20022;-66
2021/03/01 11:21:50;;;;;;;66.93;33.83;;;4.40;91.20;;;;;;5010718;28;20030;-67
2021/03/01 11:24:19;;;;;;;69.07;35.72;;;4.80;90.90;;;;;;5009541;28;20029;-67
2021/03/01 11:26:45;;;;;;;66.18;36.50;;;4.90;90.20;;;;;;5012313;28;20034;-67
2021/03/01 11:29:11;;;;;;;63.63;35.47;;;5.10;90.20;;;;;;5012143;28;20049;-67
2021/03/01 11:31:36;;;;;;;65.13;35.45;;;5.30;88.00;;;;;;5012087;28;20489;-69
2021/03/01 11:34:04;;;;;;;66.90;35.78;;;5.40;88.80;;;;;;5014880;28;20486;-67
2021/03/01 11:36:30;;;;;;;58.30;34.20;;;5.50;88.20;;;;;;5000843;28;20514;-67
2021/03/01 11:38:57;;;;;;;62.38;34.03;;;5.50;87.80;;;;;;5004274;28;20062;-68
2021/03/01 11:41:22;;;;;;;65.00;35.50;;;5.30;87.90;;;;;;5005953;28;20131;-68
2021/03/01 11:43:49;;;;;;;64.57;36.78;;;5.30;88.20;;;;;;5005940;28;20049;-67
2021/03/01 11:46:15;;;;;;;64.93;36.72;;;5.30;88.40;;;;;;5015906;28;20053;-65
2021/03/01 11:48:40;;;;;;;67.50;36.13;;;5.30;88.30;;;;;;5010104;28;20041;-65
2021/03/01 11:51:06;;;;;;;68.47;37.63;;;5.40;87.70;;;;;;5014025;28;20038;-67
2021/03/01 11:53:32;;;;;;;64.18;35.67;;;5.50;86.70;;;;;;5014492;28;20046;-69
2021/03/01 11:55:57;;;;;;;65.45;35.78;;;5.40;87.30;;;;;;5006897;28;20029;-67
2021/03/01 11:58:23;;;;;;;67.97;36.53;;;5.40;87.00;;;;;;4995595;28;20490;-67
2021/03/01 12:00:49;;;;;;;60.08;35.05;;;5.40;87.10;;;;;;5017959;28;20486;-67
2021/03/01 12:03:14;;;;;;;68.53;36.60;;;5.40;87.20;;;;;;5017877;28;20381;-66
2021/03/01 12:05:41;;;;;;;66.88;37.30;;;5.40;87.10;;;;;;5010792;28;20031;-67
2021/03/01 12:08:08;;;;;;;67.00;36.10;;;5.50;86.80;;;;;;4996893;28;20069;-67
2021/03/01 12:10:35;;;;;;;66.55;36.72;;;5.50;87.20;;;;;;4997407;28;20498;-66
2021/03/01 12:13:00;;;;;;;66.97;37.80;;;5.40;87.20;;;;;;5015434;28;20054;-67
2021/03/01 12:15:26;;;;;;;64.18;35.03;;;5.50;87.40;;;;;;4996959;28;20042;-66
2021/03/01 12:17:52;;;;;;;66.40;37.88;;;5.50;87.30;;;;;;5014804;28;20172;-66
2021/03/01 12:20:18;;;;;;;63.90;35.88;;;5.60;87.40;;;;;;5015291;28;20545;-66
2021/03/01 12:22:43;;;;;;;64.88;36.25;;;5.50;87.30;;;;;;5014571;28;20053;-66
2021/03/01 12:25:09;;;;;;;69.10;38.15;;;5.60;87.30;;;;;;5006129;28;20038;-67
2021/03/01 12:27:35;;;;;;;67.75;38.00;;;5.60;86.50;;;;;;4998721;28;20065;-67
2021/03/01 12:30:02;;;;;;;61.58;36.25;;;5.70;86.60;;;;;;5015157;28;20065;-67
2021/03/01 12:32:28;;;;;;;69.50;36.50;;;5.60;86.80;;;;;;5012030;28;20512;-66
2021/03/01 12:34:56;;;;;;;73.60;39.22;;;5.60;87.20;;;;;;4996203;28;20038;-67
2021/03/01 12:37:22;;;;;;;79.95;42.80;;;5.70;87.30;;;;;;5007616;28;20040;-67
2021/03/01 12:39:48;;;;;;;82.03;43.25;;;5.60;86.90;;;;;;5014893;28;20034;-66
2021/03/01 12:42:13;;;;;;;85.90;43.75;;;5.60;87.20;;;;;;5003423;28;20486;-70
2021/03/01 12:44:39;;;;;;;107.30;51.83;;;5.60;87.50;;;;;;5012927;28;20414;-68